This is the latest recevied weather packets stored in our database for station/object DH9SB-6. If no packets are shown the sender has not sent any weather packets the latest 10 day(s).
| Time | Temp. | Humidity | Pressure | Rain* | Wind** | Luminosity | Snow |
|---|---|---|---|---|---|---|---|
| 1787482960 | 22.78° C | 44% | - | 0 mm | - | - | - |
| 1787482384 | 22.22° C | 48% | - | 0 mm | - | - | - |
| 1787481808 | 22.22° C | 49% | - | 0 mm | - | - | - |
| 1787481185 | 22.22° C | 47% | - | 0 mm | - | - | - |
| 1787480560 | 22.22° C | 50% | - | 0 mm | - | - | - |
| 1787479983 | 22.22° C | 49% | - | 0 mm | - | - | - |
| 1787479359 | 22.78° C | 46% | - | 0 mm | - | - | - |
| 1787478783 | 22.22° C | 50% | - | 0 mm | - | - | - |
| 1787478160 | 22.22° C | 50% | - | 0 mm | - | - | - |
| 1787477584 | 22.22° C | 52% | - | 0 mm | - | - | - |
| 1787476960 | 22.22° C | 51% | - | 0 mm | - | - | - |
| 1787476385 | 22.78° C | 50% | - | 0 mm | - | - | - |
| 1787475760 | 22.78° C | 50% | - | 0 mm | - | - | - |
| 1787475184 | 22.22° C | 54% | - | 0 mm | - | - | - |
| 1787474561 | 21.67° C | 56% | - | 0 mm | - | - | - |
| 1787473984 | 21.67° C | 56% | - | 0 mm | - | - | - |
| 1787473361 | 21.67° C | 57% | - | 0 mm | - | - | - |
| 1787472783 | 21.11° C | 60% | - | 0 mm | - | - | - |
| 1787472159 | 20° C | 61% | - | 0 mm | - | - | - |
| 1787471584 | 20° C | 60% | - | 0 mm | - | - | - |
| 1787470960 | 20.56° C | 61% | - | 0 mm | - | - | - |
| 1787470383 | 19.44° C | 62% | - | 0 mm | - | - | - |
| 1787469760 | 19.44° C | 64% | - | 0 mm | - | - | - |
| 1787469183 | 18.33° C | 67% | - | 0 mm | - | - | - |
| 1787468560 | 18.33° C | 68% | - | 0 mm | - | - | - |
* Rain latest hour (hover to see other rain measurements)
** Current wind speed in m/s (hover to see current wind gust speed)